sensor_id;sensor_type;location;lat;lon;timestamp;P1;durP1;ratioP1;P2;durP2;ratioP2
7531;SDS011;3807;49.030;8.714;2023-05-10T00:01:26;0.73;;;0.70;;
7531;SDS011;3807;49.030;8.714;2023-05-10T00:03:51;0.60;;;0.60;;
7531;SDS011;3807;49.030;8.714;2023-05-10T00:06:17;2.60;;;0.70;;
7531;SDS011;3807;49.030;8.714;2023-05-10T00:08:42;0.63;;;0.60;;
7531;SDS011;3807;49.030;8.714;2023-05-10T00:11:08;0.73;;;0.73;;
7531;SDS011;3807;49.030;8.714;2023-05-10T00:13:34;0.70;;;0.70;;
7531;SDS011;3807;49.030;8.714;2023-05-10T00:15:59;2.13;;;0.80;;
7531;SDS011;3807;49.030;8.714;2023-05-10T00:18:24;2.50;;;0.87;;
7531;SDS011;3807;49.030;8.714;2023-05-10T00:20:50;2.30;;;0.70;;
7531;SDS011;3807;49.030;8.714;2023-05-10T00:23:15;1.53;;;0.60;;
7531;SDS011;3807;49.030;8.714;2023-05-10T00:25:41;1.03;;;0.80;;
7531;SDS011;3807;49.030;8.714;2023-05-10T00:28:06;0.70;;;0.70;;
7531;SDS011;3807;49.030;8.714;2023-05-10T00:30:31;0.53;;;0.53;;
7531;SDS011;3807;49.030;8.714;2023-05-10T00:32:57;3.27;;;1.90;;
7531;SDS011;3807;49.030;8.714;2023-05-10T00:35:22;1.00;;;0.70;;
7531;SDS011;3807;49.030;8.714;2023-05-10T00:37:48;0.67;;;0.67;;
7531;SDS011;3807;49.030;8.714;2023-05-10T00:40:13;1.40;;;0.90;;
7531;SDS011;3807;49.030;8.714;2023-05-10T00:42:39;0.80;;;0.60;;
7531;SDS011;3807;49.030;8.714;2023-05-10T00:45:05;0.60;;;0.60;;
7531;SDS011;3807;49.030;8.714;2023-05-10T00:47:32;0.80;;;0.80;;
7531;SDS011;3807;49.030;8.714;2023-05-10T00:49:59;1.07;;;0.70;;
7531;SDS011;3807;49.030;8.714;2023-05-10T00:52:25;2.73;;;0.80;;
7531;SDS011;3807;49.030;8.714;2023-05-10T00:54:52;0.87;;;0.70;;
7531;SDS011;3807;49.030;8.714;2023-05-10T00:57:17;2.40;;;1.00;;
7531;SDS011;3807;49.030;8.714;2023-05-10T00:59:43;0.60;;;0.60;;
7531;SDS011;3807;49.030;8.714;2023-05-10T01:02:08;1.43;;;0.60;;
7531;SDS011;3807;49.030;8.714;2023-05-10T01:04:34;0.70;;;0.70;;
7531;SDS011;3807;49.030;8.714;2023-05-10T01:07:00;0.80;;;0.80;;
7531;SDS011;3807;49.030;8.714;2023-05-10T01:09:26;0.70;;;0.70;;
7531;SDS011;3807;49.030;8.714;2023-05-10T01:11:52;0.87;;;0.87;;
7531;SDS011;3807;49.030;8.714;2023-05-10T01:14:19;0.70;;;0.70;;
7531;SDS011;3807;49.030;8.714;2023-05-10T01:16:45;0.93;;;0.90;;
7531;SDS011;3807;49.030;8.714;2023-05-10T01:19:22;0.90;;;0.80;;
7531;SDS011;3807;49.030;8.714;2023-05-10T01:32:34;2.20;;;0.87;;
7531;SDS011;3807;49.030;8.714;2023-05-10T01:35:17;2.83;;;1.00;;
7531;SDS011;3807;49.030;8.714;2023-05-10T01:43:21;1.00;;;0.90;;
7531;SDS011;3807;49.030;8.714;2023-05-10T01:48:37;5.30;;;1.20;;
7531;SDS011;3807;49.030;8.714;2023-05-10T01:51:11;1.27;;;1.17;;
7531;SDS011;3807;49.030;8.714;2023-05-10T01:53:38;1.20;;;1.00;;
7531;SDS011;3807;49.030;8.714;2023-05-10T01:56:05;1.13;;;1.00;;
7531;SDS011;3807;49.030;8.714;2023-05-10T01:58:32;1.20;;;1.10;;
7531;SDS011;3807;49.030;8.714;2023-05-10T02:01:01;1.73;;;1.20;;
7531;SDS011;3807;49.030;8.714;2023-05-10T02:03:29;1.00;;;1.00;;
7531;SDS011;3807;49.030;8.714;2023-05-10T02:05:57;2.30;;;1.20;;
7531;SDS011;3807;49.030;8.714;2023-05-10T02:08:23;3.63;;;1.10;;
7531;SDS011;3807;49.030;8.714;2023-05-10T02:10:51;1.10;;;1.00;;
7531;SDS011;3807;49.030;8.714;2023-05-10T02:13:20;1.80;;;1.00;;
7531;SDS011;3807;49.030;8.714;2023-05-10T02:15:48;1.27;;;1.17;;
7531;SDS011;3807;49.030;8.714;2023-05-10T02:18:15;1.23;;;1.13;;
7531;SDS011;3807;49.030;8.714;2023-05-10T02:20:43;3.03;;;1.20;;
7531;SDS011;3807;49.030;8.714;2023-05-10T02:23:10;0.90;;;0.90;;
7531;SDS011;3807;49.030;8.714;2023-05-10T02:25:36;1.60;;;1.37;;
7531;SDS011;3807;49.030;8.714;2023-05-10T02:28:04;3.00;;;1.30;;
7531;SDS011;3807;49.030;8.714;2023-05-10T02:30:31;1.67;;;1.57;;
7531;SDS011;3807;49.030;8.714;2023-05-10T02:32:58;2.60;;;1.30;;
7531;SDS011;3807;49.030;8.714;2023-05-10T02:35:25;1.30;;;1.20;;
7531;SDS011;3807;49.030;8.714;2023-05-10T02:37:51;1.50;;;1.40;;
7531;SDS011;3807;49.030;8.714;2023-05-10T02:40:18;1.83;;;1.73;;
7531;SDS011;3807;49.030;8.714;2023-05-10T02:42:46;4.40;;;1.83;;
7531;SDS011;3807;49.030;8.714;2023-05-10T02:45:14;2.57;;;2.17;;
7531;SDS011;3807;49.030;8.714;2023-05-10T02:47:42;2.20;;;2.00;;
7531;SDS011;3807;49.030;8.714;2023-05-10T02:50:08;2.10;;;1.77;;
7531;SDS011;3807;49.030;8.714;2023-05-10T02:52:44;4.73;;;1.97;;
7531;SDS011;3807;49.030;8.714;2023-05-10T02:55:14;2.33;;;2.13;;
7531;SDS011;3807;49.030;8.714;2023-05-10T02:57:41;3.53;;;2.20;;
7531;SDS011;3807;49.030;8.714;2023-05-10T03:00:11;2.20;;;2.00;;
7531;SDS011;3807;49.030;8.714;2023-05-10T03:02:37;3.53;;;2.33;;
7531;SDS011;3807;49.030;8.714;2023-05-10T03:05:02;2.33;;;1.83;;
7531;SDS011;3807;49.030;8.714;2023-05-10T03:07:28;4.27;;;2.53;;
7531;SDS011;3807;49.030;8.714;2023-05-10T03:09:53;3.00;;;2.50;;
7531;SDS011;3807;49.030;8.714;2023-05-10T03:12:32;2.93;;;2.30;;
7531;SDS011;3807;49.030;8.714;2023-05-10T03:20:31;2.97;;;2.23;;
7531;SDS011;3807;49.030;8.714;2023-05-10T03:25:49;3.13;;;2.17;;
7531;SDS011;3807;49.030;8.714;2023-05-10T03:28:16;2.50;;;2.20;;
7531;SDS011;3807;49.030;8.714;2023-05-10T03:30:42;3.53;;;2.13;;
7531;SDS011;3807;49.030;8.714;2023-05-10T03:33:08;3.50;;;2.10;;
7531;SDS011;3807;49.030;8.714;2023-05-10T03:35:34;4.87;;;2.20;;
7531;SDS011;3807;49.030;8.714;2023-05-10T03:37:59;2.33;;;2.13;;
7531;SDS011;3807;49.030;8.714;2023-05-10T03:40:26;2.07;;;1.87;;
7531;SDS011;3807;49.030;8.714;2023-05-10T03:42:54;2.27;;;2.07;;
7531;SDS011;3807;49.030;8.714;2023-05-10T03:45:19;3.83;;;1.87;;
7531;SDS011;3807;49.030;8.714;2023-05-10T03:47:45;2.23;;;2.00;;
7531;SDS011;3807;49.030;8.714;2023-05-10T03:50:10;2.00;;;1.77;;
7531;SDS011;3807;49.030;8.714;2023-05-10T03:52:35;1.90;;;1.80;;
7531;SDS011;3807;49.030;8.714;2023-05-10T03:55:01;6.00;;;2.00;;
7531;SDS011;3807;49.030;8.714;2023-05-10T03:57:28;2.20;;;2.00;;
7531;SDS011;3807;49.030;8.714;2023-05-10T03:59:53;2.27;;;1.77;;
7531;SDS011;3807;49.030;8.714;2023-05-10T04:02:19;2.50;;;2.13;;
7531;SDS011;3807;49.030;8.714;2023-05-10T04:04:44;2.37;;;2.03;;
7531;SDS011;3807;49.030;8.714;2023-05-10T04:07:10;3.33;;;2.30;;
7531;SDS011;3807;49.030;8.714;2023-05-10T04:09:35;2.07;;;1.90;;
7531;SDS011;3807;49.030;8.714;2023-05-10T04:12:00;3.50;;;2.10;;
7531;SDS011;3807;49.030;8.714;2023-05-10T04:14:27;2.70;;;2.00;;
7531;SDS011;3807;49.030;8.714;2023-05-10T04:16:52;2.50;;;2.10;;
7531;SDS011;3807;49.030;8.714;2023-05-10T04:19:18;2.30;;;1.93;;
7531;SDS011;3807;49.030;8.714;2023-05-10T04:21:43;3.17;;;2.23;;
7531;SDS011;3807;49.030;8.714;2023-05-10T04:24:08;2.53;;;2.33;;
7531;SDS011;3807;49.030;8.714;2023-05-10T04:26:34;2.50;;;2.30;;
7531;SDS011;3807;49.030;8.714;2023-05-10T04:28:59;3.47;;;2.10;;
7531;SDS011;3807;49.030;8.714;2023-05-10T04:31:24;2.60;;;2.40;;
7531;SDS011;3807;49.030;8.714;2023-05-10T04:33:50;4.53;;;1.83;;
7531;SDS011;3807;49.030;8.714;2023-05-10T04:36:16;7.93;;;2.37;;
7531;SDS011;3807;49.030;8.714;2023-05-10T04:38:41;4.00;;;2.03;;
7531;SDS011;3807;49.030;8.714;2023-05-10T04:41:08;2.53;;;2.17;;
7531;SDS011;3807;49.030;8.714;2023-05-10T04:43:34;7.07;;;2.00;;
7531;SDS011;3807;49.030;8.714;2023-05-10T04:46:01;3.40;;;2.30;;
7531;SDS011;3807;49.030;8.714;2023-05-10T04:48:26;4.40;;;2.27;;
7531;SDS011;3807;49.030;8.714;2023-05-10T04:50:52;2.20;;;2.00;;
7531;SDS011;3807;49.030;8.714;2023-05-10T04:53:17;2.20;;;2.00;;
7531;SDS011;3807;49.030;8.714;2023-05-10T04:55:42;3.23;;;2.00;;
7531;SDS011;3807;49.030;8.714;2023-05-10T04:58:08;2.87;;;2.30;;
7531;SDS011;3807;49.030;8.714;2023-05-10T05:00:33;2.30;;;2.10;;
7531;SDS011;3807;49.030;8.714;2023-05-10T05:02:59;3.07;;;2.30;;
7531;SDS011;3807;49.030;8.714;2023-05-10T05:05:24;2.53;;;2.00;;
7531;SDS011;3807;49.030;8.714;2023-05-10T05:07:50;2.73;;;2.23;;
7531;SDS011;3807;49.030;8.714;2023-05-10T05:10:15;2.50;;;2.30;;
7531;SDS011;3807;49.030;8.714;2023-05-10T05:12:41;5.97;;;2.33;;
7531;SDS011;3807;49.030;8.714;2023-05-10T05:15:06;3.33;;;2.70;;
7531;SDS011;3807;49.030;8.714;2023-05-10T05:17:34;3.63;;;2.87;;
7531;SDS011;3807;49.030;8.714;2023-05-10T05:19:59;6.97;;;3.87;;
7531;SDS011;3807;49.030;8.714;2023-05-10T05:22:24;3.97;;;2.70;;
7531;SDS011;3807;49.030;8.714;2023-05-10T05:24:53;4.77;;;2.80;;
7531;SDS011;3807;49.030;8.714;2023-05-10T05:27:19;5.27;;;2.47;;
7531;SDS011;3807;49.030;8.714;2023-05-10T05:29:47;3.00;;;2.53;;
7531;SDS011;3807;49.030;8.714;2023-05-10T05:32:12;5.33;;;2.37;;
7531;SDS011;3807;49.030;8.714;2023-05-10T05:34:38;3.03;;;2.40;;
7531;SDS011;3807;49.030;8.714;2023-05-10T05:37:03;5.03;;;2.57;;
7531;SDS011;3807;49.030;8.714;2023-05-10T05:39:28;3.83;;;2.47;;
7531;SDS011;3807;49.030;8.714;2023-05-10T05:41:54;2.67;;;2.10;;
7531;SDS011;3807;49.030;8.714;2023-05-10T05:44:19;3.83;;;2.37;;
7531;SDS011;3807;49.030;8.714;2023-05-10T05:46:45;3.87;;;2.80;;
7531;SDS011;3807;49.030;8.714;2023-05-10T05:49:10;2.83;;;2.30;;
7531;SDS011;3807;49.030;8.714;2023-05-10T05:51:35;3.10;;;2.50;;
7531;SDS011;3807;49.030;8.714;2023-05-10T05:54:01;2.60;;;2.17;;
7531;SDS011;3807;49.030;8.714;2023-05-10T05:56:26;4.47;;;2.30;;
7531;SDS011;3807;49.030;8.714;2023-05-10T05:58:52;2.60;;;1.80;;
7531;SDS011;3807;49.030;8.714;2023-05-10T06:01:17;3.87;;;2.30;;
7531;SDS011;3807;49.030;8.714;2023-05-10T06:03:42;3.43;;;1.90;;
7531;SDS011;3807;49.030;8.714;2023-05-10T06:06:08;4.37;;;2.20;;
7531;SDS011;3807;49.030;8.714;2023-05-10T06:08:33;3.27;;;1.97;;
7531;SDS011;3807;49.030;8.714;2023-05-10T06:10:59;1.53;;;1.43;;
7531;SDS011;3807;49.030;8.714;2023-05-10T06:13:25;2.90;;;1.90;;
7531;SDS011;3807;49.030;8.714;2023-05-10T06:15:56;3.40;;;2.00;;
7531;SDS011;3807;49.030;8.714;2023-05-10T06:18:22;2.10;;;1.77;;
7531;SDS011;3807;49.030;8.714;2023-05-10T06:20:49;2.47;;;1.60;;
7531;SDS011;3807;49.030;8.714;2023-05-10T06:23:14;5.17;;;1.90;;
7531;SDS011;3807;49.030;8.714;2023-05-10T06:25:40;3.63;;;1.70;;
7531;SDS011;3807;49.030;8.714;2023-05-10T06:28:05;2.47;;;1.40;;
7531;SDS011;3807;49.030;8.714;2023-05-10T06:30:30;1.53;;;1.40;;
7531;SDS011;3807;49.030;8.714;2023-05-10T06:32:56;1.03;;;1.03;;
7531;SDS011;3807;49.030;8.714;2023-05-10T06:35:22;1.37;;;1.10;;
7531;SDS011;3807;49.030;8.714;2023-05-10T06:37:47;3.63;;;1.20;;
7531;SDS011;3807;49.030;8.714;2023-05-10T06:40:13;2.90;;;1.27;;
7531;SDS011;3807;49.030;8.714;2023-05-10T06:42:38;2.07;;;1.37;;
7531;SDS011;3807;49.030;8.714;2023-05-10T06:45:04;3.10;;;1.40;;
7531;SDS011;3807;49.030;8.714;2023-05-10T06:47:30;2.73;;;1.70;;
7531;SDS011;3807;49.030;8.714;2023-05-10T06:49:55;1.93;;;1.33;;
7531;SDS011;3807;49.030;8.714;2023-05-10T06:52:21;1.83;;;1.37;;
7531;SDS011;3807;49.030;8.714;2023-05-10T06:54:46;3.77;;;1.30;;
7531;SDS011;3807;49.030;8.714;2023-05-10T06:57:11;2.10;;;1.40;;
7531;SDS011;3807;49.030;8.714;2023-05-10T06:59:37;2.70;;;1.70;;
7531;SDS011;3807;49.030;8.714;2023-05-10T07:02:02;4.30;;;1.87;;
7531;SDS011;3807;49.030;8.714;2023-05-10T07:04:28;4.30;;;1.63;;
7531;SDS011;3807;49.030;8.714;2023-05-10T07:06:53;2.13;;;1.40;;
7531;SDS011;3807;49.030;8.714;2023-05-10T07:09:19;3.00;;;1.73;;
7531;SDS011;3807;49.030;8.714;2023-05-10T07:11:44;2.70;;;1.40;;
7531;SDS011;3807;49.030;8.714;2023-05-10T07:14:09;2.13;;;1.30;;
7531;SDS011;3807;49.030;8.714;2023-05-10T07:16:35;2.73;;;1.50;;
7531;SDS011;3807;49.030;8.714;2023-05-10T07:19:01;5.23;;;1.47;;
7531;SDS011;3807;49.030;8.714;2023-05-10T07:21:27;3.07;;;1.27;;
7531;SDS011;3807;49.030;8.714;2023-05-10T07:23:53;4.53;;;1.33;;
7531;SDS011;3807;49.030;8.714;2023-05-10T07:26:19;1.30;;;1.20;;
7531;SDS011;3807;49.030;8.714;2023-05-10T07:28:44;1.80;;;1.60;;
7531;SDS011;3807;49.030;8.714;2023-05-10T07:31:09;2.00;;;1.43;;
7531;SDS011;3807;49.030;8.714;2023-05-10T07:33:35;1.67;;;1.40;;
7531;SDS011;3807;49.030;8.714;2023-05-10T07:36:00;2.70;;;1.23;;
7531;SDS011;3807;49.030;8.714;2023-05-10T07:38:26;1.47;;;1.20;;
7531;SDS011;3807;49.030;8.714;2023-05-10T07:40:51;1.40;;;1.30;;
7531;SDS011;3807;49.030;8.714;2023-05-10T07:43:16;2.07;;;1.20;;
7531;SDS011;3807;49.030;8.714;2023-05-10T07:45:42;1.90;;;1.40;;
7531;SDS011;3807;49.030;8.714;2023-05-10T07:48:07;1.67;;;1.13;;
7531;SDS011;3807;49.030;8.714;2023-05-10T07:50:32;1.83;;;1.37;;
7531;SDS011;3807;49.030;8.714;2023-05-10T07:52:58;2.00;;;1.30;;
7531;SDS011;3807;49.030;8.714;2023-05-10T07:55:23;1.00;;;1.00;;
7531;SDS011;3807;49.030;8.714;2023-05-10T07:57:49;2.63;;;1.17;;
7531;SDS011;3807;49.030;8.714;2023-05-10T08:00:16;2.13;;;1.10;;
7531;SDS011;3807;49.030;8.714;2023-05-10T08:02:43;1.23;;;1.00;;
7531;SDS011;3807;49.030;8.714;2023-05-10T08:05:08;1.10;;;1.00;;
7531;SDS011;3807;49.030;8.714;2023-05-10T08:07:34;9.10;;;1.43;;
7531;SDS011;3807;49.030;8.714;2023-05-10T08:10:00;1.40;;;1.10;;
7531;SDS011;3807;49.030;8.714;2023-05-10T08:12:25;1.67;;;1.07;;
7531;SDS011;3807;49.030;8.714;2023-05-10T08:14:51;2.23;;;1.00;;
7531;SDS011;3807;49.030;8.714;2023-05-10T08:17:16;5.10;;;1.20;;
7531;SDS011;3807;49.030;8.714;2023-05-10T08:19:41;1.00;;;1.00;;
7531;SDS011;3807;49.030;8.714;2023-05-10T08:22:07;0.93;;;0.90;;
7531;SDS011;3807;49.030;8.714;2023-05-10T08:24:32;1.83;;;0.90;;
7531;SDS011;3807;49.030;8.714;2023-05-10T08:26:59;1.63;;;1.20;;
7531;SDS011;3807;49.030;8.714;2023-05-10T08:29:24;1.10;;;0.90;;
7531;SDS011;3807;49.030;8.714;2023-05-10T08:31:50;3.47;;;1.07;;
7531;SDS011;3807;49.030;8.714;2023-05-10T08:34:15;3.00;;;1.07;;
7531;SDS011;3807;49.030;8.714;2023-05-10T08:36:40;1.37;;;1.10;;
7531;SDS011;3807;49.030;8.714;2023-05-10T08:39:06;2.30;;;1.00;;
7531;SDS011;3807;49.030;8.714;2023-05-10T08:41:31;1.00;;;0.90;;
7531;SDS011;3807;49.030;8.714;2023-05-10T08:43:58;1.53;;;1.07;;
7531;SDS011;3807;49.030;8.714;2023-05-10T08:46:26;1.87;;;1.20;;
7531;SDS011;3807;49.030;8.714;2023-05-10T08:48:53;1.33;;;1.00;;
7531;SDS011;3807;49.030;8.714;2023-05-10T08:51:21;5.47;;;3.07;;
7531;SDS011;3807;49.030;8.714;2023-05-10T08:53:51;1.20;;;1.10;;
7531;SDS011;3807;49.030;8.714;2023-05-10T08:56:17;1.10;;;1.00;;
7531;SDS011;3807;49.030;8.714;2023-05-10T08:58:43;3.27;;;1.10;;
7531;SDS011;3807;49.030;8.714;2023-05-10T09:01:08;2.30;;;1.00;;
7531;SDS011;3807;49.030;8.714;2023-05-10T09:03:35;1.30;;;1.20;;
7531;SDS011;3807;49.030;8.714;2023-05-10T09:06:02;3.07;;;1.07;;
7531;SDS011;3807;49.030;8.714;2023-05-10T09:08:28;2.90;;;1.27;;
7531;SDS011;3807;49.030;8.714;2023-05-10T09:10:55;2.73;;;0.90;;
7531;SDS011;3807;49.030;8.714;2023-05-10T09:13:21;4.07;;;1.27;;
7531;SDS011;3807;49.030;8.714;2023-05-10T09:15:48;2.67;;;1.00;;
7531;SDS011;3807;49.030;8.714;2023-05-10T09:18:14;1.67;;;0.90;;
7531;SDS011;3807;49.030;8.714;2023-05-10T09:20:39;1.27;;;1.00;;
7531;SDS011;3807;49.030;8.714;2023-05-10T09:23:05;1.13;;;0.90;;
7531;SDS011;3807;49.030;8.714;2023-05-10T09:25:30;2.10;;;1.00;;
7531;SDS011;3807;49.030;8.714;2023-05-10T09:27:58;1.90;;;1.10;;
7531;SDS011;3807;49.030;8.714;2023-05-10T09:32:50;1.30;;;1.03;;
7531;SDS011;3807;49.030;8.714;2023-05-10T09:35:20;2.30;;;1.13;;
7531;SDS011;3807;49.030;8.714;2023-05-10T09:37:48;1.50;;;0.90;;
7531;SDS011;3807;49.030;8.714;2023-05-10T09:40:16;1.00;;;0.90;;
7531;SDS011;3807;49.030;8.714;2023-05-10T09:42:50;1.00;;;0.90;;
7531;SDS011;3807;49.030;8.714;2023-05-10T09:45:19;1.40;;;1.20;;
7531;SDS011;3807;49.030;8.714;2023-05-10T09:47:45;1.03;;;1.00;;
7531;SDS011;3807;49.030;8.714;2023-05-10T09:50:10;1.10;;;1.00;;
7531;SDS011;3807;49.030;8.714;2023-05-10T09:52:46;4.37;;;1.20;;
7531;SDS011;3807;49.030;8.714;2023-05-10T09:55:20;2.50;;;1.10;;
7531;SDS011;3807;49.030;8.714;2023-05-10T09:57:47;1.27;;;0.90;;
7531;SDS011;3807;49.030;8.714;2023-05-10T10:00:17;3.27;;;0.97;;
7531;SDS011;3807;49.030;8.714;2023-05-10T10:03:05;1.43;;;1.00;;
7531;SDS011;3807;49.030;8.714;2023-05-10T10:05:30;1.37;;;1.27;;
7531;SDS011;3807;49.030;8.714;2023-05-10T10:07:56;1.87;;;1.10;;
7531;SDS011;3807;49.030;8.714;2023-05-10T10:10:23;1.47;;;1.10;;
7531;SDS011;3807;49.030;8.714;2023-05-10T10:12:52;1.60;;;1.20;;
7531;SDS011;3807;49.030;8.714;2023-05-10T10:15:18;2.90;;;1.20;;
7531;SDS011;3807;49.030;8.714;2023-05-10T10:17:48;1.70;;;1.30;;
7531;SDS011;3807;49.030;8.714;2023-05-10T10:20:15;3.47;;;1.20;;
7531;SDS011;3807;49.030;8.714;2023-05-10T10:22:41;0.90;;;0.90;;
7531;SDS011;3807;49.030;8.714;2023-05-10T10:25:08;4.63;;;1.10;;
7531;SDS011;3807;49.030;8.714;2023-05-10T10:28:20;1.97;;;1.20;;
7531;SDS011;3807;49.030;8.714;2023-05-10T10:30:41;5.73;;;1.10;;
7531;SDS011;3807;49.030;8.714;2023-05-10T10:35:49;1.87;;;1.10;;
7531;SDS011;3807;49.030;8.714;2023-05-10T10:38:15;2.40;;;1.07;;
7531;SDS011;3807;49.030;8.714;2023-05-10T10:40:43;1.20;;;1.10;;
7531;SDS011;3807;49.030;8.714;2023-05-10T10:43:25;1.40;;;1.30;;
7531;SDS011;3807;49.030;8.714;2023-05-10T10:46:10;1.70;;;1.20;;
7531;SDS011;3807;49.030;8.714;2023-05-10T10:48:38;2.03;;;1.30;;
7531;SDS011;3807;49.030;8.714;2023-05-10T10:51:03;2.53;;;1.50;;
7531;SDS011;3807;49.030;8.714;2023-05-10T10:53:29;1.67;;;1.40;;
7531;SDS011;3807;49.030;8.714;2023-05-10T10:56:05;2.53;;;1.40;;
7531;SDS011;3807;49.030;8.714;2023-05-10T10:58:34;3.93;;;1.20;;
7531;SDS011;3807;49.030;8.714;2023-05-10T11:01:10;5.97;;;1.10;;
7531;SDS011;3807;49.030;8.714;2023-05-10T11:03:37;4.53;;;1.10;;
7531;SDS011;3807;49.030;8.714;2023-05-10T11:06:02;1.60;;;1.10;;
7531;SDS011;3807;49.030;8.714;2023-05-10T11:08:28;1.53;;;1.10;;
7531;SDS011;3807;49.030;8.714;2023-05-10T11:16:21;2.70;;;1.30;;
7531;SDS011;3807;49.030;8.714;2023-05-10T11:21:32;4.50;;;1.40;;
7531;SDS011;3807;49.030;8.714;2023-05-10T11:23:59;3.83;;;2.03;;
7531;SDS011;3807;49.030;8.714;2023-05-10T11:26:30;2.93;;;1.50;;
7531;SDS011;3807;49.030;8.714;2023-05-10T11:28:56;5.27;;;1.90;;
7531;SDS011;3807;49.030;8.714;2023-05-10T11:31:24;3.07;;;1.70;;
7531;SDS011;3807;49.030;8.714;2023-05-10T11:33:52;2.27;;;1.70;;
7531;SDS011;3807;49.030;8.714;2023-05-10T11:36:26;2.20;;;1.67;;
7531;SDS011;3807;49.030;8.714;2023-05-10T11:38:53;2.17;;;1.70;;
7531;SDS011;3807;49.030;8.714;2023-05-10T11:41:20;2.40;;;1.47;;
7531;SDS011;3807;49.030;8.714;2023-05-10T11:43:47;3.67;;;1.57;;
7531;SDS011;3807;49.030;8.714;2023-05-10T11:46:14;5.63;;;1.33;;
7531;SDS011;3807;49.030;8.714;2023-05-10T11:48:41;2.27;;;1.53;;
7531;SDS011;3807;49.030;8.714;2023-05-10T11:51:07;4.53;;;1.60;;
7531;SDS011;3807;49.030;8.714;2023-05-10T11:53:34;3.70;;;1.43;;
7531;SDS011;3807;49.030;8.714;2023-05-10T11:56:03;2.63;;;1.50;;
7531;SDS011;3807;49.030;8.714;2023-05-10T11:58:30;4.40;;;1.57;;
7531;SDS011;3807;49.030;8.714;2023-05-10T12:00:55;5.50;;;1.67;;
7531;SDS011;3807;49.030;8.714;2023-05-10T12:03:21;6.83;;;1.70;;
7531;SDS011;3807;49.030;8.714;2023-05-10T12:05:47;2.13;;;1.33;;
7531;SDS011;3807;49.030;8.714;2023-05-10T12:08:16;1.50;;;1.20;;
7531;SDS011;3807;49.030;8.714;2023-05-10T12:10:45;2.93;;;1.70;;
7531;SDS011;3807;49.030;8.714;2023-05-10T12:13:11;2.13;;;1.50;;
7531;SDS011;3807;49.030;8.714;2023-05-10T12:15:40;2.60;;;1.40;;
7531;SDS011;3807;49.030;8.714;2023-05-10T12:18:10;4.70;;;1.50;;
7531;SDS011;3807;49.030;8.714;2023-05-10T12:20:36;4.57;;;2.43;;
7531;SDS011;3807;49.030;8.714;2023-05-10T12:23:02;1.60;;;1.37;;
7531;SDS011;3807;49.030;8.714;2023-05-10T12:25:35;3.80;;;1.30;;
7531;SDS011;3807;49.030;8.714;2023-05-10T12:28:05;3.17;;;1.33;;
7531;SDS011;3807;49.030;8.714;2023-05-10T12:30:32;2.53;;;1.10;;
7531;SDS011;3807;49.030;8.714;2023-05-10T12:33:02;3.63;;;1.50;;
7531;SDS011;3807;49.030;8.714;2023-05-10T12:35:32;2.13;;;1.30;;
7531;SDS011;3807;49.030;8.714;2023-05-10T12:37:58;1.57;;;1.10;;
7531;SDS011;3807;49.030;8.714;2023-05-10T12:40:23;5.63;;;1.20;;
7531;SDS011;3807;49.030;8.714;2023-05-10T12:42:49;2.47;;;1.00;;
7531;SDS011;3807;49.030;8.714;2023-05-10T12:45:14;2.27;;;1.07;;
7531;SDS011;3807;49.030;8.714;2023-05-10T12:47:40;4.97;;;1.00;;
7531;SDS011;3807;49.030;8.714;2023-05-10T12:50:05;2.57;;;1.10;;
7531;SDS011;3807;49.030;8.714;2023-05-10T12:52:31;1.53;;;0.90;;
7531;SDS011;3807;49.030;8.714;2023-05-10T12:54:57;1.50;;;0.80;;
7531;SDS011;3807;49.030;8.714;2023-05-10T12:57:24;1.27;;;0.67;;
7531;SDS011;3807;49.030;8.714;2023-05-10T12:59:50;2.40;;;1.00;;
7531;SDS011;3807;49.030;8.714;2023-05-10T13:02:15;1.80;;;0.90;;
7531;SDS011;3807;49.030;8.714;2023-05-10T13:04:42;3.70;;;1.00;;
7531;SDS011;3807;49.030;8.714;2023-05-10T13:07:09;0.90;;;0.70;;
7531;SDS011;3807;49.030;8.714;2023-05-10T13:09:34;1.27;;;1.00;;
7531;SDS011;3807;49.030;8.714;2023-05-10T13:12:00;1.17;;;0.90;;
7531;SDS011;3807;49.030;8.714;2023-05-10T13:14:25;1.47;;;1.10;;
7531;SDS011;3807;49.030;8.714;2023-05-10T13:16:51;3.00;;;1.20;;
7531;SDS011;3807;49.030;8.714;2023-05-10T13:19:16;2.10;;;1.20;;
7531;SDS011;3807;49.030;8.714;2023-05-10T13:21:42;2.50;;;1.03;;
7531;SDS011;3807;49.030;8.714;2023-05-10T13:24:09;1.10;;;1.00;;
7531;SDS011;3807;49.030;8.714;2023-05-10T13:26:35;2.27;;;1.10;;
7531;SDS011;3807;49.030;8.714;2023-05-10T13:29:01;1.50;;;1.30;;
7531;SDS011;3807;49.030;8.714;2023-05-10T13:31:27;1.20;;;1.00;;
7531;SDS011;3807;49.030;8.714;2023-05-10T13:33:52;2.13;;;1.07;;
7531;SDS011;3807;49.030;8.714;2023-05-10T13:36:17;1.20;;;0.80;;
7531;SDS011;3807;49.030;8.714;2023-05-10T13:38:43;1.73;;;1.10;;
7531;SDS011;3807;49.030;8.714;2023-05-10T13:41:08;1.10;;;0.70;;
7531;SDS011;3807;49.030;8.714;2023-05-10T13:43:33;1.60;;;0.80;;
7531;SDS011;3807;49.030;8.714;2023-05-10T13:45:59;1.17;;;0.97;;
7531;SDS011;3807;49.030;8.714;2023-05-10T13:48:24;0.87;;;0.83;;
7531;SDS011;3807;49.030;8.714;2023-05-10T13:50:50;1.90;;;1.00;;
7531;SDS011;3807;49.030;8.714;2023-05-10T13:53:15;1.57;;;0.90;;
7531;SDS011;3807;49.030;8.714;2023-05-10T13:55:40;1.37;;;1.10;;
7531;SDS011;3807;49.030;8.714;2023-05-10T13:58:06;1.27;;;0.90;;
7531;SDS011;3807;49.030;8.714;2023-05-10T14:00:31;1.63;;;1.00;;
7531;SDS011;3807;49.030;8.714;2023-05-10T14:02:57;1.43;;;0.90;;
7531;SDS011;3807;49.030;8.714;2023-05-10T14:05:22;1.63;;;1.03;;
7531;SDS011;3807;49.030;8.714;2023-05-10T14:07:48;1.33;;;0.80;;
7531;SDS011;3807;49.030;8.714;2023-05-10T14:10:13;1.43;;;0.90;;
7531;SDS011;3807;49.030;8.714;2023-05-10T14:12:39;4.00;;;0.90;;
7531;SDS011;3807;49.030;8.714;2023-05-10T14:15:04;2.17;;;0.90;;
7531;SDS011;3807;49.030;8.714;2023-05-10T14:17:31;2.43;;;1.00;;
7531;SDS011;3807;49.030;8.714;2023-05-10T14:19:56;4.07;;;1.00;;
7531;SDS011;3807;49.030;8.714;2023-05-10T14:22:22;0.97;;;0.80;;
7531;SDS011;3807;49.030;8.714;2023-05-10T14:24:47;1.07;;;0.90;;
7531;SDS011;3807;49.030;8.714;2023-05-10T14:27:13;1.60;;;1.00;;
7531;SDS011;3807;49.030;8.714;2023-05-10T14:29:39;1.13;;;0.80;;
7531;SDS011;3807;49.030;8.714;2023-05-10T14:32:04;3.27;;;0.80;;
7531;SDS011;3807;49.030;8.714;2023-05-10T14:34:30;2.80;;;0.90;;
7531;SDS011;3807;49.030;8.714;2023-05-10T14:36:55;1.83;;;0.80;;
7531;SDS011;3807;49.030;8.714;2023-05-10T14:39:21;2.43;;;0.73;;
7531;SDS011;3807;49.030;8.714;2023-05-10T14:41:46;2.60;;;0.87;;
7531;SDS011;3807;49.030;8.714;2023-05-10T14:44:12;1.07;;;0.90;;
7531;SDS011;3807;49.030;8.714;2023-05-10T14:46:38;1.37;;;0.60;;
7531;SDS011;3807;49.030;8.714;2023-05-10T14:49:04;1.03;;;0.90;;
7531;SDS011;3807;49.030;8.714;2023-05-10T14:51:29;1.30;;;1.00;;
7531;SDS011;3807;49.030;8.714;2023-05-10T14:53:55;1.87;;;1.00;;
7531;SDS011;3807;49.030;8.714;2023-05-10T14:56:20;0.70;;;0.70;;
7531;SDS011;3807;49.030;8.714;2023-05-10T14:58:46;4.63;;;0.90;;
7531;SDS011;3807;49.030;8.714;2023-05-10T15:01:11;2.27;;;1.20;;
7531;SDS011;3807;49.030;8.714;2023-05-10T15:03:37;1.27;;;0.80;;
7531;SDS011;3807;49.030;8.714;2023-05-10T15:06:03;3.23;;;0.87;;
7531;SDS011;3807;49.030;8.714;2023-05-10T15:08:28;1.70;;;0.70;;
7531;SDS011;3807;49.030;8.714;2023-05-10T15:10:54;1.57;;;0.83;;
7531;SDS011;3807;49.030;8.714;2023-05-10T15:13:20;4.63;;;0.90;;
7531;SDS011;3807;49.030;8.714;2023-05-10T15:15:46;1.73;;;0.83;;
7531;SDS011;3807;49.030;8.714;2023-05-10T15:18:11;2.40;;;0.80;;
7531;SDS011;3807;49.030;8.714;2023-05-10T15:20:37;0.77;;;0.70;;
7531;SDS011;3807;49.030;8.714;2023-05-10T15:23:02;2.97;;;0.70;;
7531;SDS011;3807;49.030;8.714;2023-05-10T15:25:28;0.73;;;0.70;;
7531;SDS011;3807;49.030;8.714;2023-05-10T15:27:53;5.73;;;0.80;;
7531;SDS011;3807;49.030;8.714;2023-05-10T15:30:19;2.20;;;0.83;;
7531;SDS011;3807;49.030;8.714;2023-05-10T15:32:44;1.90;;;0.80;;
7531;SDS011;3807;49.030;8.714;2023-05-10T15:35:10;0.80;;;0.60;;
7531;SDS011;3807;49.030;8.714;2023-05-10T15:37:36;3.17;;;0.63;;
7531;SDS011;3807;49.030;8.714;2023-05-10T15:40:01;2.12;;;1.58;;
7531;SDS011;3807;49.030;8.714;2023-05-10T15:42:29;3.92;;;1.33;;
7531;SDS011;3807;49.030;8.714;2023-05-10T15:44:55;1.15;;;0.73;;
7531;SDS011;3807;49.030;8.714;2023-05-10T15:47:21;2.27;;;1.50;;
7531;SDS011;3807;49.030;8.714;2023-05-10T15:49:46;4.20;;;2.50;;
7531;SDS011;3807;49.030;8.714;2023-05-10T15:52:12;1.63;;;1.20;;